createdAt,value
2018-04-12T00:01:48.330Z,5.11
2018-04-12T00:04:54.450Z,5.19
2018-04-12T00:08:00.090Z,5.09
2018-04-12T00:11:05.302Z,5.08
2018-04-12T00:14:10.233Z,5.09
2018-04-12T00:17:15.453Z,5.14
2018-04-12T00:20:20.663Z,5.06
2018-04-12T00:23:26.785Z,5.09
2018-04-12T00:26:32.400Z,5.20
2018-04-12T00:29:38.401Z,5.23
2018-04-12T00:32:44.637Z,5.24
2018-04-12T00:35:49.862Z,5.24
2018-04-12T00:38:55.999Z,5.24
2018-04-12T00:42:01.969Z,5.22
2018-04-12T00:45:08.072Z,5.25
2018-04-12T00:48:13.269Z,5.24
2018-04-12T00:51:18.971Z,5.21
2018-04-12T00:54:24.877Z,5.27
2018-04-12T00:57:30.081Z,5.23
2018-04-12T01:00:35.712Z,5.14
2018-04-12T01:03:41.914Z,5.11
2018-04-12T01:06:47.140Z,5.12
2018-04-12T01:09:53.250Z,5.05
2018-04-12T01:12:58.464Z,5.01
2018-04-12T01:16:04.573Z,5.06
2018-04-12T01:19:09.694Z,5.05
2018-04-12T01:22:14.893Z,5.01
2018-04-12T01:25:20.126Z,5.04
2018-04-12T01:28:25.293Z,5.04
2018-04-12T01:31:30.921Z,4.98
2018-04-12T01:34:37.049Z,4.94
2018-04-12T01:37:42.277Z,4.87
2018-04-12T01:40:47.497Z,4.97
2018-04-12T01:43:52.701Z,4.90
2018-04-12T01:46:58.436Z,4.88
2018-04-12T01:50:04.033Z,4.94
2018-04-12T01:53:09.286Z,5.05
2018-04-12T01:56:15.200Z,5.11
2018-04-12T01:59:21.351Z,5.17
2018-04-12T02:02:27.573Z,5.17
2018-04-12T02:05:33.426Z,5.20
2018-04-12T02:08:38.835Z,5.22
2018-04-12T02:11:44.461Z,5.25
2018-04-12T02:14:50.273Z,5.23
2018-04-12T02:17:56.406Z,5.22
2018-04-12T02:21:02.030Z,5.20
2018-04-12T02:24:08.154Z,5.20
2018-04-12T02:27:13.829Z,5.22
2018-04-12T02:30:19.288Z,5.21
2018-04-12T02:33:24.652Z,5.12
2018-04-12T02:36:30.401Z,5.06
2018-04-12T02:39:35.640Z,5.06
2018-04-12T02:42:40.557Z,5.00
2018-04-12T02:45:46.594Z,5.02
2018-04-12T02:48:52.658Z,4.98
2018-04-12T02:51:58.785Z,5.01
2018-04-12T02:55:03.779Z,4.96
2018-04-12T02:58:09.697Z,4.96
2018-04-12T03:01:16.581Z,5.06
2018-04-12T03:04:22.402Z,4.93
2018-04-12T03:07:28.545Z,5.03
2018-04-12T03:10:33.752Z,5.05
2018-04-12T03:13:38.966Z,5.01
2018-04-12T03:16:44.601Z,5.04
2018-04-12T03:19:50.006Z,5.06
2018-04-12T03:22:55.228Z,5.07
2018-04-12T03:26:00.281Z,5.09
2018-04-12T03:29:05.917Z,5.08
2018-04-12T03:32:11.137Z,5.08
2018-04-12T03:35:16.365Z,5.06
2018-04-12T03:38:21.609Z,5.06
2018-04-12T03:41:26.793Z,5.06
2018-04-12T03:44:31.665Z,5.02
2018-04-12T03:47:37.803Z,4.99
2018-04-12T03:50:43.149Z,5.02
2018-04-12T03:53:48.361Z,5.00
2018-04-12T03:56:54.277Z,5.06
2018-04-12T03:59:59.249Z,5.04
2018-04-12T04:03:04.478Z,5.00
2018-04-12T04:06:10.193Z,5.03
2018-04-12T04:09:15.527Z,5.02
2018-04-12T04:12:20.517Z,5.01
2018-04-12T04:15:36.542Z,5.04
2018-04-12T04:18:52.217Z,5.04
2018-04-12T04:21:58.784Z,5.04
2018-04-12T04:25:03.671Z,5.05
2018-04-12T04:28:09.286Z,5.03
2018-04-12T04:31:14.481Z,5.00
2018-04-12T04:34:20.118Z,4.99
2018-04-12T04:37:25.325Z,4.99
2018-04-12T04:40:31.172Z,5.00
2018-04-12T04:43:36.777Z,4.98
2018-04-12T04:46:41.998Z,4.97
2018-04-12T04:49:47.200Z,4.96
2018-04-12T04:52:52.617Z,4.97
2018-04-12T04:55:58.541Z,4.98
2018-04-12T04:59:03.764Z,5.01
2018-04-12T05:02:10.416Z,5.01
2018-04-12T05:05:15.108Z,5.00
2018-04-12T05:08:20.121Z,5.01
2018-04-12T05:11:25.361Z,4.99
2018-04-12T05:14:31.101Z,5.00
2018-04-12T05:17:36.313Z,5.03
2018-04-12T05:20:41.509Z,5.04
2018-04-12T05:23:46.734Z,5.05
2018-04-12T05:26:52.769Z,5.06
2018-04-12T05:29:57.742Z,5.10
2018-04-12T05:33:02.951Z,5.10
2018-04-12T05:36:08.169Z,5.12
2018-04-12T05:39:14.482Z,5.19
2018-04-12T05:42:20.623Z,5.21
2018-04-12T05:45:26.280Z,5.26
2018-04-12T05:48:31.459Z,5.28
2018-04-12T05:51:37.591Z,5.32
2018-04-12T05:54:42.517Z,5.34
2018-04-12T05:57:48.541Z,5.36
2018-04-12T06:00:53.741Z,5.39
2018-04-12T06:03:58.960Z,5.44
2018-04-12T06:07:04.441Z,5.45
2018-04-12T06:10:09.763Z,5.46
2018-04-12T06:13:14.961Z,5.50
2018-04-12T06:16:20.786Z,5.55
2018-04-12T06:19:26.897Z,5.57
2018-04-12T06:22:32.525Z,5.60
2018-04-12T06:25:37.729Z,5.63
2018-04-12T06:28:43.591Z,5.67
2018-04-12T06:31:49.692Z,5.72
2018-04-12T06:34:55.326Z,5.76
2018-04-12T06:38:00.535Z,5.82
2018-04-12T06:41:06.901Z,5.86
2018-04-12T06:44:12.100Z,5.94
2018-04-12T06:47:17.713Z,5.99
2018-04-12T06:50:23.602Z,6.05
2018-04-12T06:53:29.718Z,6.09
2018-04-12T06:56:34.655Z,6.15
2018-04-12T06:59:40.299Z,6.18
2018-04-12T07:02:45.522Z,6.24
2018-04-12T07:05:51.718Z,6.29
2018-04-12T07:08:57.105Z,6.37
2018-04-12T07:12:02.297Z,6.42
2018-04-12T07:15:08.231Z,6.47
2018-04-12T07:18:13.448Z,6.53
2018-04-12T07:21:19.165Z,6.60
2018-04-12T07:24:24.382Z,6.65
2018-04-12T07:27:29.373Z,6.72
2018-04-12T07:30:34.654Z,6.79
2018-04-12T07:33:40.393Z,6.85
2018-04-12T07:36:46.417Z,6.92
2018-04-12T07:39:51.813Z,6.99
2018-04-12T07:42:57.026Z,7.06
2018-04-12T07:46:02.670Z,7.11
2018-04-12T07:49:08.823Z,7.18
2018-04-12T07:52:14.453Z,7.23
2018-04-12T07:55:20.493Z,7.33
2018-04-12T07:58:26.609Z,7.41
2018-04-12T08:01:32.005Z,7.46
2018-04-12T08:04:37.218Z,7.52
2018-04-12T08:07:43.383Z,7.59
2018-04-12T08:10:48.321Z,7.65
2018-04-12T08:13:53.978Z,7.72
2018-04-12T08:16:59.889Z,7.79
2018-04-12T08:20:04.585Z,7.85
2018-04-12T08:23:10.500Z,7.89
2018-04-12T08:26:15.712Z,7.95
2018-04-12T08:29:20.940Z,8.04
2018-04-12T08:32:26.589Z,8.13
2018-04-12T08:35:31.839Z,8.21
2018-04-12T08:38:38.586Z,8.31
2018-04-12T08:41:44.206Z,8.40
2018-04-12T08:44:50.531Z,8.49
2018-04-12T08:47:55.759Z,8.58
2018-04-12T08:51:00.891Z,8.66
2018-04-12T08:54:07.029Z,8.76
2018-04-12T08:57:11.916Z,8.85
2018-04-12T09:00:17.053Z,8.94
2018-04-12T09:03:22.989Z,9.04
2018-04-12T09:06:28.239Z,9.13
2018-04-12T09:09:33.176Z,9.20
2018-04-12T09:12:38.390Z,9.33
2018-04-12T09:15:44.033Z,9.42
2018-04-12T09:18:50.375Z,9.50
2018-04-12T09:21:56.513Z,9.56
2018-04-12T09:25:01.728Z,9.65
2018-04-12T09:28:07.870Z,9.72
2018-04-12T09:31:13.097Z,9.79
2018-04-12T09:34:18.254Z,9.87
2018-04-12T09:37:23.480Z,9.95
2018-04-12T09:40:29.153Z,10.01
2018-04-12T09:43:35.106Z,10.07
2018-04-12T09:46:40.049Z,10.14
2018-04-12T09:49:45.990Z,10.25
2018-04-12T09:52:51.225Z,10.33
2018-04-12T09:55:56.472Z,10.40
2018-04-12T09:59:01.690Z,10.49
2018-04-12T10:02:06.682Z,10.60
2018-04-12T10:05:17.810Z,10.73
2018-04-12T10:08:27.696Z,10.79
2018-04-12T10:11:33.921Z,10.87
2018-04-12T10:14:40.061Z,10.96
2018-04-12T10:17:45.295Z,11.05
2018-04-12T10:20:50.523Z,11.06
2018-04-12T10:23:55.752Z,11.08
2018-04-12T10:27:00.965Z,11.08
2018-04-12T10:30:07.185Z,11.09
2018-04-12T10:33:13.338Z,11.08
2018-04-12T10:36:19.153Z,11.15
2018-04-12T10:39:24.399Z,11.08
2018-04-12T10:42:29.617Z,11.08
2018-04-12T10:45:35.142Z,11.09
2018-04-12T10:48:40.357Z,11.15
2018-04-12T10:51:45.402Z,11.15
2018-04-12T10:54:50.809Z,11.15
2018-04-12T10:57:56.870Z,11.21
2018-04-12T11:01:02.098Z,11.22
2018-04-12T11:04:08.102Z,11.30
2018-04-12T11:07:13.531Z,11.32
2018-04-12T11:10:19.278Z,11.34
2018-04-12T11:13:24.493Z,11.37
2018-04-12T11:16:30.529Z,11.40
2018-04-12T11:19:36.498Z,11.45
2018-04-12T11:22:42.554Z,11.52
2018-04-12T11:25:48.520Z,11.55
2018-04-12T11:28:54.670Z,11.59
2018-04-12T11:31:59.610Z,11.63
2018-04-12T11:35:04.524Z,11.66
2018-04-12T11:38:10.940Z,11.72
2018-04-12T11:41:16.161Z,11.76
2018-04-12T11:44:22.111Z,11.80
2018-04-12T11:47:27.110Z,11.87
2018-04-12T11:50:33.356Z,11.95
2018-04-12T11:53:39.185Z,11.97
2018-04-12T11:56:45.174Z,12.02
2018-04-12T11:59:51.484Z,12.09
2018-04-12T12:02:56.713Z,12.16
2018-04-12T12:06:01.659Z,12.24
2018-04-12T12:09:08.241Z,12.27
2018-04-12T12:12:14.119Z,12.30
2018-04-12T12:15:20.245Z,12.35
2018-04-12T12:18:26.402Z,12.35
2018-04-12T12:21:32.494Z,12.38
2018-04-12T12:24:38.432Z,12.39
2018-04-12T12:27:44.457Z,12.45
2018-04-12T12:30:50.505Z,12.44
2018-04-12T12:33:56.320Z,12.42
2018-04-12T12:37:01.545Z,12.40
2018-04-12T12:40:06.514Z,12.43
2018-04-12T12:43:12.474Z,12.46
2018-04-12T12:46:18.338Z,12.49
2018-04-12T12:49:24.471Z,12.52
2018-04-12T12:52:30.106Z,12.53
2018-04-12T12:55:35.821Z,12.57
2018-04-12T12:58:41.244Z,12.58
2018-04-12T13:01:46.482Z,12.60
2018-04-12T13:04:52.163Z,12.58
2018-04-12T13:07:57.374Z,12.59
2018-04-12T13:11:02.621Z,12.61
2018-04-12T13:14:08.953Z,12.57
2018-04-12T13:17:14.171Z,12.56
2018-04-12T13:20:20.392Z,12.56
2018-04-12T13:23:26.019Z,12.50
2018-04-12T13:26:31.771Z,12.48
2018-04-12T13:29:36.998Z,12.45
2018-04-12T13:32:42.721Z,12.40
2018-04-12T13:35:48.677Z,12.40
2018-04-12T13:38:54.099Z,12.40
2018-04-12T13:41:59.748Z,12.46
2018-04-12T13:45:04.421Z,12.43
2018-04-12T13:48:12.063Z,12.46
2018-04-12T13:51:19.149Z,12.53
2018-04-12T13:54:24.757Z,12.58
2018-04-12T13:57:30.007Z,12.61
2018-04-12T14:00:35.222Z,12.65
2018-04-12T14:03:40.441Z,12.69
2018-04-12T14:06:45.685Z,12.75
2018-04-12T14:09:50.621Z,12.80
2018-04-12T14:12:57.298Z,12.84
2018-04-12T14:16:02.520Z,12.85
2018-04-12T14:19:07.741Z,12.87
2018-04-12T14:22:13.470Z,12.89
2018-04-12T14:25:19.533Z,12.95
2018-04-12T14:28:25.694Z,12.98
2018-04-12T14:31:31.734Z,13.01
2018-04-12T14:34:37.669Z,13.03
2018-04-12T14:37:42.891Z,13.10
2018-04-12T14:40:48.482Z,13.11
2018-04-12T14:43:53.708Z,13.15
2018-04-12T14:46:58.938Z,13.20
2018-04-12T14:50:04.726Z,13.26
2018-04-12T14:53:09.969Z,13.30
2018-04-12T14:56:15.178Z,13.37
2018-04-12T14:59:20.412Z,13.43
2018-04-12T15:02:26.552Z,13.45
2018-04-12T15:05:32.600Z,13.49
2018-04-12T15:08:38.033Z,13.54
2018-04-12T15:11:43.669Z,13.56
2018-04-12T15:14:48.884Z,13.58
2018-04-12T15:17:54.112Z,13.61
2018-04-12T15:21:00.276Z,13.62
2018-04-12T15:24:05.990Z,13.65
2018-04-12T15:27:11.377Z,13.68
2018-04-12T15:30:16.794Z,13.71
2018-04-12T15:33:22.024Z,13.71
2018-04-12T15:36:27.754Z,13.74
2018-04-12T15:39:32.978Z,13.71
2018-04-12T15:42:39.731Z,13.69
2018-04-12T15:45:45.116Z,13.67
2018-04-12T15:48:50.560Z,13.63
2018-04-12T15:51:55.981Z,13.60
2018-04-12T15:55:01.905Z,13.56
2018-04-12T15:58:08.007Z,13.54
2018-04-12T16:01:13.601Z,13.52
2018-04-12T16:04:18.541Z,13.50
2018-04-12T16:07:24.040Z,13.53
2018-04-12T16:10:28.979Z,13.46
2018-04-12T16:13:34.852Z,13.42
2018-04-12T16:16:40.704Z,13.42
2018-04-12T16:19:46.060Z,13.38
2018-04-12T16:22:51.031Z,13.40
2018-04-12T16:25:56.009Z,13.34
2018-04-12T16:29:01.593Z,13.31
2018-04-12T16:32:07.907Z,13.27
2018-04-12T16:35:13.211Z,13.21
2018-04-12T16:38:19.127Z,13.16
2018-04-12T16:41:24.455Z,13.09
2018-04-12T16:44:29.428Z,13.04
2018-04-12T16:47:34.573Z,12.97
2018-04-12T16:50:39.293Z,12.89
2018-04-12T16:53:45.429Z,12.80
2018-04-12T16:56:51.123Z,12.70
2018-04-12T16:59:57.088Z,12.62
2018-04-12T17:03:02.201Z,12.48
2018-04-12T17:06:07.649Z,12.34
2018-04-12T17:09:13.025Z,12.25
2018-04-12T17:12:19.410Z,12.17
2018-04-12T17:15:25.066Z,12.00
2018-04-12T17:18:30.005Z,11.91
2018-04-12T17:21:35.243Z,11.79
2018-04-12T17:24:40.706Z,11.72
2018-04-12T17:27:45.856Z,11.63
2018-04-12T17:30:51.537Z,11.56
2018-04-12T17:33:57.447Z,11.48
2018-04-12T17:37:03.148Z,11.33
2018-04-12T17:40:08.907Z,11.22
2018-04-12T17:43:14.933Z,11.16
2018-04-12T17:46:20.170Z,11.06
2018-04-12T17:49:25.539Z,10.92
2018-04-12T17:52:31.624Z,10.82
2018-04-12T17:55:36.566Z,10.73
2018-04-12T17:58:42.511Z,10.66
2018-04-12T18:01:48.370Z,10.53
2018-04-12T18:04:54.165Z,10.44
2018-04-12T18:08:00.026Z,10.38
2018-04-12T18:11:05.392Z,10.33
2018-04-12T18:14:11.363Z,10.24
2018-04-12T18:17:17.284Z,10.16
2018-04-12T18:20:22.239Z,10.08
2018-04-12T18:23:27.457Z,10.03
2018-04-12T18:26:32.396Z,9.95
2018-04-12T18:29:38.360Z,9.89
2018-04-12T18:32:43.994Z,9.84
2018-04-12T18:35:48.933Z,9.76
2018-04-12T18:38:54.883Z,9.69
2018-04-12T18:41:59.819Z,9.61
2018-04-12T18:45:05.581Z,9.58
2018-04-12T18:48:11.434Z,9.52
2018-04-12T18:51:17.059Z,9.49
2018-04-12T18:54:22.977Z,9.42
2018-04-12T18:57:28.181Z,9.44
2018-04-12T19:00:33.618Z,9.43
2018-04-12T19:03:38.559Z,9.40
2018-04-12T19:06:45.125Z,9.37
2018-04-12T19:09:50.054Z,9.31
2018-04-12T19:12:55.593Z,9.26
2018-04-12T19:16:00.525Z,9.19
2018-04-12T19:19:05.426Z,9.19
2018-04-12T19:22:10.874Z,9.12
2018-04-12T19:25:15.813Z,9.06
2018-04-12T19:28:21.271Z,9.04
2018-04-12T19:31:26.190Z,9.07
2018-04-12T19:34:31.653Z,8.98
2018-04-12T19:37:36.577Z,8.98
2018-04-12T19:40:41.934Z,8.95
2018-04-12T19:43:46.864Z,9.01
2018-04-12T19:46:52.537Z,8.94
2018-04-12T19:49:57.471Z,8.86
2018-04-12T19:53:02.409Z,8.86
2018-04-12T19:56:08.161Z,8.84
2018-04-12T19:59:13.923Z,8.81
2018-04-12T20:02:19.959Z,8.79
2018-04-12T20:05:24.900Z,8.79
2018-04-12T20:08:30.938Z,8.80
2018-04-12T20:11:35.878Z,8.74
2018-04-12T20:14:42.018Z,8.74
2018-04-12T20:17:46.527Z,8.75
2018-04-12T20:20:52.094Z,8.66
2018-04-12T20:23:57.971Z,8.70
2018-04-12T20:27:02.908Z,8.67
2018-04-12T20:30:07.844Z,8.65
2018-04-12T20:33:13.627Z,8.65
2018-04-12T20:36:18.629Z,8.54
2018-04-12T20:39:24.025Z,8.61
2018-04-12T20:42:28.977Z,8.57
2018-04-12T20:45:33.912Z,8.55
2018-04-12T20:48:38.860Z,8.55
2018-04-12T20:51:44.329Z,8.54
2018-04-12T20:54:49.285Z,8.53
2018-04-12T20:57:54.754Z,8.52
2018-04-12T21:01:00.185Z,8.52
2018-04-12T21:04:06.544Z,8.50
2018-04-12T21:07:12.089Z,8.47
2018-04-12T21:10:17.455Z,8.48
2018-04-12T21:13:22.393Z,8.47
2018-04-12T21:16:27.509Z,8.46
2018-04-12T21:19:32.451Z,8.39
2018-04-12T21:22:38.097Z,8.33
2018-04-12T21:25:43.030Z,8.35
2018-04-12T21:28:49.082Z,8.32
2018-04-12T21:31:54.522Z,8.35
2018-04-12T21:35:00.404Z,8.34
2018-04-12T21:38:05.610Z,8.33
2018-04-12T21:41:11.457Z,8.32
2018-04-12T21:44:17.169Z,8.20
2018-04-12T21:47:22.805Z,8.23
2018-04-12T21:50:27.750Z,8.15
2018-04-12T21:53:33.081Z,8.16
2018-04-12T21:56:38.020Z,8.09
2018-04-12T21:59:43.370Z,8.17
2018-04-12T22:02:49.247Z,8.14
2018-04-12T22:05:55.076Z,8.13
2018-04-12T22:09:00.016Z,8.09
2018-04-12T22:12:05.760Z,8.12
2018-04-12T22:15:10.701Z,8.10
2018-04-12T22:18:16.045Z,8.08
2018-04-12T22:21:20.982Z,8.09
2018-04-12T22:24:27.550Z,8.00
2018-04-12T22:27:34.576Z,7.99
2018-04-12T22:30:40.126Z,8.03
2018-04-12T22:33:45.684Z,8.03
2018-04-12T22:36:50.661Z,8.01
2018-04-12T22:39:56.211Z,7.97
2018-04-12T22:43:02.057Z,7.95
2018-04-12T22:46:07.806Z,7.94
2018-04-12T22:49:13.439Z,7.96
2018-04-12T22:52:19.193Z,7.97
2018-04-12T22:55:25.025Z,7.98
2018-04-12T22:58:30.877Z,7.95
2018-04-12T23:01:36.116Z,7.94
2018-04-12T23:04:41.333Z,7.93
2018-04-12T23:07:46.549Z,7.88
2018-04-12T23:10:51.753Z,7.87
2018-04-12T23:13:57.902Z,7.87
2018-04-12T23:17:03.514Z,7.88
2018-04-12T23:20:08.728Z,7.87
2018-04-12T23:23:14.751Z,7.86
2018-04-12T23:26:20.421Z,7.85
2018-04-12T23:29:25.661Z,7.84
2018-04-12T23:32:30.860Z,7.85
2018-04-12T23:35:36.076Z,7.85
2018-04-12T23:38:41.295Z,7.85
2018-04-12T23:41:47.439Z,7.86
2018-04-12T23:44:53.077Z,7.85
2018-04-12T23:47:59.193Z,7.84
2018-04-12T23:51:05.222Z,7.84
2018-04-12T23:54:11.386Z,7.84
2018-04-12T23:57:17.326Z,7.84
